sensor_id;sensor_type;location;lat;lon;timestamp;P1;durP1;ratioP1;P2;durP2;ratioP2
78908;SDS011;68298;37.368;127.108;2023-04-15T00:01:03;11.52;;;3.40;;
78908;SDS011;68298;37.368;127.108;2023-04-15T00:03:34;8.20;;;3.85;;
78908;SDS011;68298;37.368;127.108;2023-04-15T00:06:06;10.87;;;3.57;;
78908;SDS011;68298;37.368;127.108;2023-04-15T00:08:38;7.47;;;3.42;;
78908;SDS011;68298;37.368;127.108;2023-04-15T00:11:09;7.88;;;3.70;;
78908;SDS011;68298;37.368;127.108;2023-04-15T00:13:40;8.02;;;2.72;;
78908;SDS011;68298;37.368;127.108;2023-04-15T00:16:13;6.28;;;2.97;;
78908;SDS011;68298;37.368;127.108;2023-04-15T00:18:44;7.75;;;3.97;;
78908;SDS011;68298;37.368;127.108;2023-04-15T00:21:14;10.15;;;3.40;;
78908;SDS011;68298;37.368;127.108;2023-04-15T00:23:46;8.48;;;3.38;;
78908;SDS011;68298;37.368;127.108;2023-04-15T00:26:20;6.28;;;2.95;;
78908;SDS011;68298;37.368;127.108;2023-04-15T00:28:51;8.32;;;3.40;;
78908;SDS011;68298;37.368;127.108;2023-04-15T00:31:22;5.93;;;2.80;;
78908;SDS011;68298;37.368;127.108;2023-04-15T00:33:53;5.50;;;2.67;;
78908;SDS011;68298;37.368;127.108;2023-04-15T00:36:24;6.68;;;3.55;;
78908;SDS011;68298;37.368;127.108;2023-04-15T00:38:54;6.45;;;3.28;;
78908;SDS011;68298;37.368;127.108;2023-04-15T00:41:26;8.18;;;2.65;;
78908;SDS011;68298;37.368;127.108;2023-04-15T00:43:56;6.05;;;2.70;;
78908;SDS011;68298;37.368;127.108;2023-04-15T00:46:27;8.63;;;2.72;;
78908;SDS011;68298;37.368;127.108;2023-04-15T00:49:00;6.40;;;3.00;;
78908;SDS011;68298;37.368;127.108;2023-04-15T00:51:32;9.93;;;2.92;;
78908;SDS011;68298;37.368;127.108;2023-04-15T00:56:36;4.05;;;2.17;;
78908;SDS011;68298;37.368;127.108;2023-04-15T00:59:08;4.72;;;2.40;;
78908;SDS011;68298;37.368;127.108;2023-04-15T01:01:39;3.97;;;2.28;;
78908;SDS011;68298;37.368;127.108;2023-04-15T01:04:10;6.68;;;2.55;;
78908;SDS011;68298;37.368;127.108;2023-04-15T01:06:41;4.25;;;2.05;;
78908;SDS011;68298;37.368;127.108;2023-04-15T01:09:12;4.28;;;2.22;;
78908;SDS011;68298;37.368;127.108;2023-04-15T01:11:43;4.05;;;1.80;;
78908;SDS011;68298;37.368;127.108;2023-04-15T01:14:13;4.40;;;2.35;;
78908;SDS011;68298;37.368;127.108;2023-04-15T01:16:44;6.22;;;2.30;;
78908;SDS011;68298;37.368;127.108;2023-04-15T01:19:15;7.03;;;2.53;;
78908;SDS011;68298;37.368;127.108;2023-04-15T01:21:46;6.60;;;2.28;;
78908;SDS011;68298;37.368;127.108;2023-04-15T01:24:17;8.07;;;2.75;;
78908;SDS011;68298;37.368;127.108;2023-04-15T01:26:48;6.93;;;2.47;;
78908;SDS011;68298;37.368;127.108;2023-04-15T01:29:19;5.72;;;2.13;;
78908;SDS011;68298;37.368;127.108;2023-04-15T01:31:54;7.72;;;2.75;;
78908;SDS011;68298;37.368;127.108;2023-04-15T01:34:26;7.50;;;2.50;;
78908;SDS011;68298;37.368;127.108;2023-04-15T01:36:56;5.30;;;2.28;;
78908;SDS011;68298;37.368;127.108;2023-04-15T01:39:27;8.90;;;2.97;;
78908;SDS011;68298;37.368;127.108;2023-04-15T01:41:57;9.93;;;3.00;;
78908;SDS011;68298;37.368;127.108;2023-04-15T01:44:28;7.07;;;2.67;;
78908;SDS011;68298;37.368;127.108;2023-04-15T01:46:59;8.35;;;3.13;;
78908;SDS011;68298;37.368;127.108;2023-04-15T01:49:42;10.32;;;3.25;;
78908;SDS011;68298;37.368;127.108;2023-04-15T01:52:25;8.48;;;3.00;;
78908;SDS011;68298;37.368;127.108;2023-04-15T01:54:56;8.25;;;3.13;;
78908;SDS011;68298;37.368;127.108;2023-04-15T01:57:27;8.30;;;3.25;;
78908;SDS011;68298;37.368;127.108;2023-04-15T01:59:57;9.32;;;3.17;;
78908;SDS011;68298;37.368;127.108;2023-04-15T02:02:39;7.07;;;2.78;;
78908;SDS011;68298;37.368;127.108;2023-04-15T02:05:10;9.10;;;3.20;;
78908;SDS011;68298;37.368;127.108;2023-04-15T02:07:46;8.50;;;3.00;;
78908;SDS011;68298;37.368;127.108;2023-04-15T02:10:18;6.90;;;3.05;;
78908;SDS011;68298;37.368;127.108;2023-04-15T02:12:48;7.85;;;3.10;;
78908;SDS011;68298;37.368;127.108;2023-04-15T02:15:19;8.23;;;2.60;;
78908;SDS011;68298;37.368;127.108;2023-04-15T02:17:49;8.02;;;3.30;;
78908;SDS011;68298;37.368;127.108;2023-04-15T02:20:23;7.55;;;3.05;;
78908;SDS011;68298;37.368;127.108;2023-04-15T02:22:57;8.43;;;3.15;;
78908;SDS011;68298;37.368;127.108;2023-04-15T02:25:27;6.32;;;3.00;;
78908;SDS011;68298;37.368;127.108;2023-04-15T02:27:58;7.57;;;3.10;;
78908;SDS011;68298;37.368;127.108;2023-04-15T02:30:29;9.80;;;3.53;;
78908;SDS011;68298;37.368;127.108;2023-04-15T02:33:01;6.93;;;2.88;;
78908;SDS011;68298;37.368;127.108;2023-04-15T02:35:33;8.40;;;3.63;;
78908;SDS011;68298;37.368;127.108;2023-04-15T02:38:06;12.02;;;4.05;;
78908;SDS011;68298;37.368;127.108;2023-04-15T02:40:36;7.93;;;3.28;;
78908;SDS011;68298;37.368;127.108;2023-04-15T02:43:07;7.30;;;2.80;;
78908;SDS011;68298;37.368;127.108;2023-04-15T02:45:37;6.85;;;2.80;;
78908;SDS011;68298;37.368;127.108;2023-04-15T02:48:09;9.60;;;3.80;;
78908;SDS011;68298;37.368;127.108;2023-04-15T02:50:40;6.45;;;3.05;;
78908;SDS011;68298;37.368;127.108;2023-04-15T02:53:12;7.65;;;3.22;;
78908;SDS011;68298;37.368;127.108;2023-04-15T02:55:44;6.93;;;3.35;;
78908;SDS011;68298;37.368;127.108;2023-04-15T02:58:14;11.07;;;3.85;;
78908;SDS011;68298;37.368;127.108;2023-04-15T03:00:45;7.10;;;2.80;;
78908;SDS011;68298;37.368;127.108;2023-04-15T03:03:15;6.57;;;3.40;;
78908;SDS011;68298;37.368;127.108;2023-04-15T03:05:46;7.40;;;3.22;;
78908;SDS011;68298;37.368;127.108;2023-04-15T03:08:17;10.25;;;3.50;;
78908;SDS011;68298;37.368;127.108;2023-04-15T03:10:48;8.15;;;3.38;;
78908;SDS011;68298;37.368;127.108;2023-04-15T03:13:21;6.32;;;3.10;;
78908;SDS011;68298;37.368;127.108;2023-04-15T03:15:52;11.25;;;3.28;;
78908;SDS011;68298;37.368;127.108;2023-04-15T03:18:23;8.57;;;3.67;;
78908;SDS011;68298;37.368;127.108;2023-04-15T03:20:54;7.95;;;3.42;;
78908;SDS011;68298;37.368;127.108;2023-04-15T03:23:25;9.85;;;3.65;;
78908;SDS011;68298;37.368;127.108;2023-04-15T03:25:56;9.65;;;4.00;;
78908;SDS011;68298;37.368;127.108;2023-04-15T03:28:29;9.73;;;3.72;;
78908;SDS011;68298;37.368;127.108;2023-04-15T03:31:01;10.40;;;3.35;;
78908;SDS011;68298;37.368;127.108;2023-04-15T03:33:44;8.07;;;3.50;;
78908;SDS011;68298;37.368;127.108;2023-04-15T03:36:14;9.35;;;3.42;;
78908;SDS011;68298;37.368;127.108;2023-04-15T03:38:45;12.70;;;3.63;;
78908;SDS011;68298;37.368;127.108;2023-04-15T03:41:17;9.15;;;3.72;;
78908;SDS011;68298;37.368;127.108;2023-04-15T03:43:48;8.82;;;4.20;;
78908;SDS011;68298;37.368;127.108;2023-04-15T03:46:20;7.63;;;3.08;;
78908;SDS011;68298;37.368;127.108;2023-04-15T03:48:50;8.98;;;3.05;;
78908;SDS011;68298;37.368;127.108;2023-04-15T03:51:33;6.45;;;3.55;;
78908;SDS011;68298;37.368;127.108;2023-04-15T03:54:04;10.75;;;3.85;;
78908;SDS011;68298;37.368;127.108;2023-04-15T03:56:34;9.70;;;4.13;;
78908;SDS011;68298;37.368;127.108;2023-04-15T03:59:05;7.85;;;3.83;;
78908;SDS011;68298;37.368;127.108;2023-04-15T04:01:35;7.55;;;3.40;;
78908;SDS011;68298;37.368;127.108;2023-04-15T04:04:05;11.07;;;4.40;;
78908;SDS011;68298;37.368;127.108;2023-04-15T04:06:36;15.63;;;4.47;;
78908;SDS011;68298;37.368;127.108;2023-04-15T04:09:19;9.85;;;3.42;;
78908;SDS011;68298;37.368;127.108;2023-04-15T04:11:50;10.60;;;3.70;;
78908;SDS011;68298;37.368;127.108;2023-04-15T04:14:21;10.57;;;4.15;;
78908;SDS011;68298;37.368;127.108;2023-04-15T04:16:57;9.48;;;4.20;;
78908;SDS011;68298;37.368;127.108;2023-04-15T04:19:28;8.65;;;4.32;;
78908;SDS011;68298;37.368;127.108;2023-04-15T04:21:59;12.98;;;3.88;;
78908;SDS011;68298;37.368;127.108;2023-04-15T04:24:29;8.48;;;3.17;;
78908;SDS011;68298;37.368;127.108;2023-04-15T04:27:00;11.55;;;3.42;;
78908;SDS011;68298;37.368;127.108;2023-04-15T04:29:31;13.15;;;4.47;;
78908;SDS011;68298;37.368;127.108;2023-04-15T04:32:01;9.98;;;3.95;;
78908;SDS011;68298;37.368;127.108;2023-04-15T04:34:31;8.32;;;3.30;;
78908;SDS011;68298;37.368;127.108;2023-04-15T04:37:02;13.35;;;3.70;;
78908;SDS011;68298;37.368;127.108;2023-04-15T04:39:45;8.65;;;3.08;;
78908;SDS011;68298;37.368;127.108;2023-04-15T04:42:15;12.90;;;3.58;;
78908;SDS011;68298;37.368;127.108;2023-04-15T04:44:46;13.32;;;4.07;;
78908;SDS011;68298;37.368;127.108;2023-04-15T04:47:16;15.73;;;3.92;;
78908;SDS011;68298;37.368;127.108;2023-04-15T04:49:47;9.25;;;3.72;;
78908;SDS011;68298;37.368;127.108;2023-04-15T04:52:17;13.23;;;3.60;;
78908;SDS011;68298;37.368;127.108;2023-04-15T04:54:48;7.95;;;3.35;;
78908;SDS011;68298;37.368;127.108;2023-04-15T04:57:18;12.55;;;4.13;;
78908;SDS011;68298;37.368;127.108;2023-04-15T04:59:48;7.25;;;3.10;;
78908;SDS011;68298;37.368;127.108;2023-04-15T05:02:19;8.23;;;3.67;;
78908;SDS011;68298;37.368;127.108;2023-04-15T05:04:50;10.57;;;3.60;;
78908;SDS011;68298;37.368;127.108;2023-04-15T05:07:22;12.50;;;3.45;;
78908;SDS011;68298;37.368;127.108;2023-04-15T05:09:52;12.13;;;3.78;;
78908;SDS011;68298;37.368;127.108;2023-04-15T05:12:36;10.90;;;3.38;;
78908;SDS011;68298;37.368;127.108;2023-04-15T05:15:07;11.60;;;4.03;;
78908;SDS011;68298;37.368;127.108;2023-04-15T05:17:51;9.55;;;4.35;;
78908;SDS011;68298;37.368;127.108;2023-04-15T05:20:21;8.35;;;3.67;;
78908;SDS011;68298;37.368;127.108;2023-04-15T05:22:52;7.75;;;3.55;;
78908;SDS011;68298;37.368;127.108;2023-04-15T05:25:22;12.63;;;4.22;;
78908;SDS011;68298;37.368;127.108;2023-04-15T05:27:53;11.25;;;3.60;;
78908;SDS011;68298;37.368;127.108;2023-04-15T05:30:36;8.40;;;3.35;;
78908;SDS011;68298;37.368;127.108;2023-04-15T05:33:07;10.18;;;3.92;;
78908;SDS011;68298;37.368;127.108;2023-04-15T05:35:37;11.68;;;4.50;;
78908;SDS011;68298;37.368;127.108;2023-04-15T05:38:08;9.88;;;4.10;;
78908;SDS011;68298;37.368;127.108;2023-04-15T05:40:39;14.65;;;5.15;;
78908;SDS011;68298;37.368;127.108;2023-04-15T05:43:09;13.60;;;4.80;;
78908;SDS011;68298;37.368;127.108;2023-04-15T05:45:40;8.70;;;4.03;;
78908;SDS011;68298;37.368;127.108;2023-04-15T05:48:10;11.50;;;4.47;;
78908;SDS011;68298;37.368;127.108;2023-04-15T05:50:41;10.13;;;3.65;;
78908;SDS011;68298;37.368;127.108;2023-04-15T05:53:11;9.45;;;3.50;;
78908;SDS011;68298;37.368;127.108;2023-04-15T05:55:42;10.07;;;4.15;;
78908;SDS011;68298;37.368;127.108;2023-04-15T05:58:12;9.48;;;4.70;;
78908;SDS011;68298;37.368;127.108;2023-04-15T06:00:42;12.43;;;4.72;;
78908;SDS011;68298;37.368;127.108;2023-04-15T06:03:14;11.02;;;5.32;;
78908;SDS011;68298;37.368;127.108;2023-04-15T06:05:45;15.73;;;5.30;;
78908;SDS011;68298;37.368;127.108;2023-04-15T06:08:15;11.85;;;4.75;;
78908;SDS011;68298;37.368;127.108;2023-04-15T06:10:47;14.30;;;5.63;;
78908;SDS011;68298;37.368;127.108;2023-04-15T06:13:17;14.32;;;5.82;;
78908;SDS011;68298;37.368;127.108;2023-04-15T06:15:48;15.88;;;5.32;;
78908;SDS011;68298;37.368;127.108;2023-04-15T06:18:19;14.70;;;6.07;;
78908;SDS011;68298;37.368;127.108;2023-04-15T06:20:50;15.70;;;6.00;;
78908;SDS011;68298;37.368;127.108;2023-04-15T06:23:21;14.93;;;5.47;;
78908;SDS011;68298;37.368;127.108;2023-04-15T06:25:54;11.45;;;5.13;;
78908;SDS011;68298;37.368;127.108;2023-04-15T06:31:07;12.60;;;4.80;;
78908;SDS011;68298;37.368;127.108;2023-04-15T06:33:37;16.75;;;5.18;;
78908;SDS011;68298;37.368;127.108;2023-04-15T06:36:07;10.38;;;4.40;;
78908;SDS011;68298;37.368;127.108;2023-04-15T06:38:38;13.48;;;4.93;;
78908;SDS011;68298;37.368;127.108;2023-04-15T06:41:08;8.13;;;3.22;;
78908;SDS011;68298;37.368;127.108;2023-04-15T06:43:40;15.07;;;4.85;;
78908;SDS011;68298;37.368;127.108;2023-04-15T06:46:11;11.70;;;4.53;;
78908;SDS011;68298;37.368;127.108;2023-04-15T06:48:41;13.15;;;4.50;;
78908;SDS011;68298;37.368;127.108;2023-04-15T06:51:12;10.25;;;3.80;;
78908;SDS011;68298;37.368;127.108;2023-04-15T06:53:42;13.02;;;4.00;;
78908;SDS011;68298;37.368;127.108;2023-04-15T06:56:13;12.80;;;3.70;;
78908;SDS011;68298;37.368;127.108;2023-04-15T06:58:43;9.95;;;4.40;;
78908;SDS011;68298;37.368;127.108;2023-04-15T07:01:14;14.27;;;4.65;;
78908;SDS011;68298;37.368;127.108;2023-04-15T07:03:45;11.88;;;5.20;;
78908;SDS011;68298;37.368;127.108;2023-04-15T07:06:15;8.40;;;4.32;;
78908;SDS011;68298;37.368;127.108;2023-04-15T07:08:48;9.40;;;4.10;;
78908;SDS011;68298;37.368;127.108;2023-04-15T07:11:18;13.40;;;4.00;;
78908;SDS011;68298;37.368;127.108;2023-04-15T07:13:49;11.75;;;4.07;;
78908;SDS011;68298;37.368;127.108;2023-04-15T07:16:20;14.18;;;3.97;;
78908;SDS011;68298;37.368;127.108;2023-04-15T07:18:51;11.27;;;4.65;;
78908;SDS011;68298;37.368;127.108;2023-04-15T07:21:21;8.90;;;2.80;;
78908;SDS011;68298;37.368;127.108;2023-04-15T07:23:52;12.90;;;4.40;;
78908;SDS011;68298;37.368;127.108;2023-04-15T07:26:23;9.20;;;3.25;;
78908;SDS011;68298;37.368;127.108;2023-04-15T07:28:53;9.27;;;3.50;;
78908;SDS011;68298;37.368;127.108;2023-04-15T07:31:24;10.57;;;3.75;;
78908;SDS011;68298;37.368;127.108;2023-04-15T07:33:55;8.20;;;3.55;;
78908;SDS011;68298;37.368;127.108;2023-04-15T07:36:27;8.35;;;3.30;;
78908;SDS011;68298;37.368;127.108;2023-04-15T07:38:58;10.65;;;2.85;;
78908;SDS011;68298;37.368;127.108;2023-04-15T07:41:31;6.32;;;3.10;;
78908;SDS011;68298;37.368;127.108;2023-04-15T07:44:01;10.82;;;3.53;;
78908;SDS011;68298;37.368;127.108;2023-04-15T07:46:32;8.82;;;3.45;;
78908;SDS011;68298;37.368;127.108;2023-04-15T07:49:03;8.82;;;3.35;;
78908;SDS011;68298;37.368;127.108;2023-04-15T07:51:34;6.38;;;3.22;;
78908;SDS011;68298;37.368;127.108;2023-04-15T07:54:05;7.38;;;2.70;;
78908;SDS011;68298;37.368;127.108;2023-04-15T07:56:36;5.85;;;2.50;;
78908;SDS011;68298;37.368;127.108;2023-04-15T07:59:07;6.65;;;2.75;;
78908;SDS011;68298;37.368;127.108;2023-04-15T08:01:38;7.93;;;2.92;;
78908;SDS011;68298;37.368;127.108;2023-04-15T08:04:09;6.45;;;2.47;;
78908;SDS011;68298;37.368;127.108;2023-04-15T08:06:40;10.00;;;2.75;;
78908;SDS011;68298;37.368;127.108;2023-04-15T08:09:10;7.03;;;2.25;;
78908;SDS011;68298;37.368;127.108;2023-04-15T08:11:40;10.32;;;2.55;;
78908;SDS011;68298;37.368;127.108;2023-04-15T08:14:11;5.95;;;2.70;;
78908;SDS011;68298;37.368;127.108;2023-04-15T08:16:41;6.70;;;2.53;;
78908;SDS011;68298;37.368;127.108;2023-04-15T08:19:12;7.55;;;2.53;;
78908;SDS011;68298;37.368;127.108;2023-04-15T08:21:42;8.57;;;2.53;;
78908;SDS011;68298;37.368;127.108;2023-04-15T08:24:13;7.00;;;2.70;;
78908;SDS011;68298;37.368;127.108;2023-04-15T08:26:44;5.80;;;2.20;;
78908;SDS011;68298;37.368;127.108;2023-04-15T08:29:15;6.03;;;2.20;;
78908;SDS011;68298;37.368;127.108;2023-04-15T08:31:45;8.35;;;2.42;;
78908;SDS011;68298;37.368;127.108;2023-04-15T08:34:16;8.75;;;2.53;;
78908;SDS011;68298;37.368;127.108;2023-04-15T08:36:46;9.35;;;2.30;;
78908;SDS011;68298;37.368;127.108;2023-04-15T08:39:17;10.10;;;2.80;;
78908;SDS011;68298;37.368;127.108;2023-04-15T08:41:51;13.00;;;2.80;;
78908;SDS011;68298;37.368;127.108;2023-04-15T08:44:35;12.70;;;2.80;;
78908;SDS011;68298;37.368;127.108;2023-04-15T08:47:07;9.95;;;2.90;;
78908;SDS011;68298;37.368;127.108;2023-04-15T08:52:09;11.45;;;3.83;;
78908;SDS011;68298;37.368;127.108;2023-04-15T08:54:41;11.80;;;3.00;;
78908;SDS011;68298;37.368;127.108;2023-04-15T08:57:12;9.63;;;3.45;;
78908;SDS011;68298;37.368;127.108;2023-04-15T08:59:44;7.75;;;2.35;;
78908;SDS011;68298;37.368;127.108;2023-04-15T09:02:15;9.20;;;2.47;;
78908;SDS011;68298;37.368;127.108;2023-04-15T09:04:46;9.65;;;3.03;;
78908;SDS011;68298;37.368;127.108;2023-04-15T09:07:17;8.90;;;3.15;;
78908;SDS011;68298;37.368;127.108;2023-04-15T09:09:48;11.00;;;2.95;;
78908;SDS011;68298;37.368;127.108;2023-04-15T09:12:19;11.43;;;4.20;;
78908;SDS011;68298;37.368;127.108;2023-04-15T09:14:49;7.85;;;3.08;;
78908;SDS011;68298;37.368;127.108;2023-04-15T09:17:20;9.52;;;3.10;;
78908;SDS011;68298;37.368;127.108;2023-04-15T09:20:06;9.48;;;3.20;;
78908;SDS011;68298;37.368;127.108;2023-04-15T09:22:41;11.75;;;2.90;;
78908;SDS011;68298;37.368;127.108;2023-04-15T09:27:47;9.10;;;3.25;;
78908;SDS011;68298;37.368;127.108;2023-04-15T09:30:22;16.58;;;4.45;;
78908;SDS011;68298;37.368;127.108;2023-04-15T09:32:55;10.50;;;3.03;;
78908;SDS011;68298;37.368;127.108;2023-04-15T09:35:36;6.68;;;3.13;;
78908;SDS011;68298;37.368;127.108;2023-04-15T09:38:07;14.00;;;4.18;;
78908;SDS011;68298;37.368;127.108;2023-04-15T09:40:39;9.57;;;3.78;;
78908;SDS011;68298;37.368;127.108;2023-04-15T09:43:10;13.10;;;4.40;;
78908;SDS011;68298;37.368;127.108;2023-04-15T09:45:52;9.82;;;4.00;;
78908;SDS011;68298;37.368;127.108;2023-04-15T09:48:23;17.65;;;5.05;;
78908;SDS011;68298;37.368;127.108;2023-04-15T09:50:59;7.72;;;4.03;;
78908;SDS011;68298;37.368;127.108;2023-04-15T09:53:32;9.05;;;3.65;;
78908;SDS011;68298;37.368;127.108;2023-04-15T09:56:04;14.15;;;5.63;;
78908;SDS011;68298;37.368;127.108;2023-04-15T09:58:37;9.18;;;3.38;;
78908;SDS011;68298;37.368;127.108;2023-04-15T10:01:22;9.68;;;4.28;;
78908;SDS011;68298;37.368;127.108;2023-04-15T10:03:52;8.75;;;3.58;;
78908;SDS011;68298;37.368;127.108;2023-04-15T10:08:58;8.80;;;3.95;;
78908;SDS011;68298;37.368;127.108;2023-04-15T10:11:30;8.82;;;3.75;;
78908;SDS011;68298;37.368;127.108;2023-04-15T10:14:02;8.98;;;3.95;;
78908;SDS011;68298;37.368;127.108;2023-04-15T10:16:33;8.15;;;4.18;;
78908;SDS011;68298;37.368;127.108;2023-04-15T10:19:08;10.70;;;4.50;;
78908;SDS011;68298;37.368;127.108;2023-04-15T10:21:40;15.02;;;5.10;;
78908;SDS011;68298;37.368;127.108;2023-04-15T10:24:13;13.68;;;5.00;;
78908;SDS011;68298;37.368;127.108;2023-04-15T10:26:45;11.27;;;4.57;;
78908;SDS011;68298;37.368;127.108;2023-04-15T10:29:16;8.32;;;3.78;;
78908;SDS011;68298;37.368;127.108;2023-04-15T10:31:47;15.68;;;5.07;;
78908;SDS011;68298;37.368;127.108;2023-04-15T10:34:18;11.63;;;4.60;;
78908;SDS011;68298;37.368;127.108;2023-04-15T10:36:48;12.77;;;5.03;;
78908;SDS011;68298;37.368;127.108;2023-04-15T10:39:42;9.02;;;4.50;;
78908;SDS011;68298;37.368;127.108;2023-04-15T10:42:13;13.38;;;5.50;;
78908;SDS011;68298;37.368;127.108;2023-04-15T10:44:49;8.63;;;4.88;;
78908;SDS011;68298;37.368;127.108;2023-04-15T10:47:20;13.18;;;4.75;;
78908;SDS011;68298;37.368;127.108;2023-04-15T10:49:56;13.88;;;5.63;;
78908;SDS011;68298;37.368;127.108;2023-04-15T10:52:28;8.70;;;4.82;;
78908;SDS011;68298;37.368;127.108;2023-04-15T10:57:45;12.65;;;5.13;;
78908;SDS011;68298;37.368;127.108;2023-04-15T11:00:23;8.60;;;5.13;;
78908;SDS011;68298;37.368;127.108;2023-04-15T11:08:11;12.95;;;5.68;;
78908;SDS011;68298;37.368;127.108;2023-04-15T11:13:14;14.73;;;6.45;;
78908;SDS011;68298;37.368;127.108;2023-04-15T11:15:48;10.75;;;5.50;;
78908;SDS011;68298;37.368;127.108;2023-04-15T11:20:55;12.10;;;5.40;;
78908;SDS011;68298;37.368;127.108;2023-04-15T11:26:01;14.23;;;6.45;;
78908;SDS011;68298;37.368;127.108;2023-04-15T11:28:35;14.38;;;6.07;;
78908;SDS011;68298;37.368;127.108;2023-04-15T11:31:16;10.63;;;6.20;;
78908;SDS011;68298;37.368;127.108;2023-04-15T11:33:57;17.52;;;6.80;;
78908;SDS011;68298;37.368;127.108;2023-04-15T11:36:30;10.50;;;6.25;;
78908;SDS011;68298;37.368;127.108;2023-04-15T11:39:01;16.50;;;6.40;;
78908;SDS011;68298;37.368;127.108;2023-04-15T11:41:31;12.57;;;6.20;;
78908;SDS011;68298;37.368;127.108;2023-04-15T11:44:14;12.70;;;5.90;;
78908;SDS011;68298;37.368;127.108;2023-04-15T11:46:46;12.70;;;5.80;;
78908;SDS011;68298;37.368;127.108;2023-04-15T11:49:26;12.43;;;5.70;;
78908;SDS011;68298;37.368;127.108;2023-04-15T11:51:59;11.13;;;5.88;;
78908;SDS011;68298;37.368;127.108;2023-04-15T11:54:42;12.02;;;6.13;;
78908;SDS011;68298;37.368;127.108;2023-04-15T11:57:13;13.80;;;6.75;;
78908;SDS011;68298;37.368;127.108;2023-04-15T11:59:44;13.85;;;6.15;;
78908;SDS011;68298;37.368;127.108;2023-04-15T12:02:15;14.00;;;6.30;;
78908;SDS011;68298;37.368;127.108;2023-04-15T12:04:46;9.75;;;6.30;;
78908;SDS011;68298;37.368;127.108;2023-04-15T12:07:17;16.60;;;7.07;;
78908;SDS011;68298;37.368;127.108;2023-04-15T12:09:53;16.25;;;6.80;;
78908;SDS011;68298;37.368;127.108;2023-04-15T12:12:27;12.60;;;6.68;;
78908;SDS011;68298;37.368;127.108;2023-04-15T12:14:58;14.85;;;7.00;;
78908;SDS011;68298;37.368;127.108;2023-04-15T12:17:29;12.00;;;6.38;;
78908;SDS011;68298;37.368;127.108;2023-04-15T12:20:24;14.10;;;7.07;;
78908;SDS011;68298;37.368;127.108;2023-04-15T12:23:03;13.23;;;6.20;;
78908;SDS011;68298;37.368;127.108;2023-04-15T12:25:35;12.18;;;6.22;;
78908;SDS011;68298;37.368;127.108;2023-04-15T12:28:12;10.32;;;6.88;;
78908;SDS011;68298;37.368;127.108;2023-04-15T12:30:49;14.70;;;6.90;;
78908;SDS011;68298;37.368;127.108;2023-04-15T12:33:20;10.15;;;6.18;;
78908;SDS011;68298;37.368;127.108;2023-04-15T12:35:51;11.57;;;6.38;;
78908;SDS011;68298;37.368;127.108;2023-04-15T12:38:22;15.13;;;7.82;;
78908;SDS011;68298;37.368;127.108;2023-04-15T12:40:53;15.57;;;7.05;;
78908;SDS011;68298;37.368;127.108;2023-04-15T12:43:23;11.27;;;6.95;;
78908;SDS011;68298;37.368;127.108;2023-04-15T12:45:55;14.15;;;6.95;;
78908;SDS011;68298;37.368;127.108;2023-04-15T12:48:25;14.98;;;6.72;;
78908;SDS011;68298;37.368;127.108;2023-04-15T12:50:56;13.95;;;7.07;;
78908;SDS011;68298;37.368;127.108;2023-04-15T12:53:26;12.10;;;6.93;;
78908;SDS011;68298;37.368;127.108;2023-04-15T12:56:00;19.63;;;8.48;;
78908;SDS011;68298;37.368;127.108;2023-04-15T12:58:30;13.57;;;7.32;;
78908;SDS011;68298;37.368;127.108;2023-04-15T13:01:01;19.08;;;8.05;;
78908;SDS011;68298;37.368;127.108;2023-04-15T13:03:32;20.10;;;7.53;;
78908;SDS011;68298;37.368;127.108;2023-04-15T13:06:03;14.15;;;6.97;;
78908;SDS011;68298;37.368;127.108;2023-04-15T13:08:34;14.02;;;7.15;;
78908;SDS011;68298;37.368;127.108;2023-04-15T13:11:11;15.80;;;7.93;;
78908;SDS011;68298;37.368;127.108;2023-04-15T13:13:42;13.65;;;7.32;;
78908;SDS011;68298;37.368;127.108;2023-04-15T13:16:13;14.60;;;7.28;;
78908;SDS011;68298;37.368;127.108;2023-04-15T13:18:44;15.88;;;7.35;;
78908;SDS011;68298;37.368;127.108;2023-04-15T13:21:15;17.55;;;8.20;;
78908;SDS011;68298;37.368;127.108;2023-04-15T13:23:47;14.25;;;7.53;;
78908;SDS011;68298;37.368;127.108;2023-04-15T13:26:19;20.55;;;8.55;;
78908;SDS011;68298;37.368;127.108;2023-04-15T13:28:49;18.95;;;8.82;;
78908;SDS011;68298;37.368;127.108;2023-04-15T13:31:20;20.23;;;8.40;;
78908;SDS011;68298;37.368;127.108;2023-04-15T13:33:51;17.30;;;8.30;;
78908;SDS011;68298;37.368;127.108;2023-04-15T13:36:22;20.35;;;8.82;;
78908;SDS011;68298;37.368;127.108;2023-04-15T13:38:55;15.98;;;7.50;;
78908;SDS011;68298;37.368;127.108;2023-04-15T13:41:39;17.05;;;8.00;;
78908;SDS011;68298;37.368;127.108;2023-04-15T13:44:09;17.50;;;8.38;;
78908;SDS011;68298;37.368;127.108;2023-04-15T13:46:40;20.27;;;8.88;;
78908;SDS011;68298;37.368;127.108;2023-04-15T13:49:11;16.10;;;8.35;;
78908;SDS011;68298;37.368;127.108;2023-04-15T13:51:42;15.30;;;8.02;;
78908;SDS011;68298;37.368;127.108;2023-04-15T13:54:13;14.70;;;8.13;;
78908;SDS011;68298;37.368;127.108;2023-04-15T13:56:43;15.02;;;7.93;;
78908;SDS011;68298;37.368;127.108;2023-04-15T13:59:14;17.38;;;7.95;;
78908;SDS011;68298;37.368;127.108;2023-04-15T14:01:44;17.98;;;8.30;;
78908;SDS011;68298;37.368;127.108;2023-04-15T14:04:15;18.35;;;9.15;;
78908;SDS011;68298;37.368;127.108;2023-04-15T14:06:46;15.43;;;7.93;;
78908;SDS011;68298;37.368;127.108;2023-04-15T14:09:17;15.80;;;8.45;;
78908;SDS011;68298;37.368;127.108;2023-04-15T14:11:53;15.70;;;7.82;;
78908;SDS011;68298;37.368;127.108;2023-04-15T14:16:56;20.42;;;8.68;;
78908;SDS011;68298;37.368;127.108;2023-04-15T14:19:28;19.15;;;8.85;;
78908;SDS011;68298;37.368;127.108;2023-04-15T14:21:59;21.40;;;10.23;;
78908;SDS011;68298;37.368;127.108;2023-04-15T14:24:32;16.75;;;8.70;;
78908;SDS011;68298;37.368;127.108;2023-04-15T14:27:03;17.58;;;8.93;;
78908;SDS011;68298;37.368;127.108;2023-04-15T14:29:36;19.98;;;9.70;;
78908;SDS011;68298;37.368;127.108;2023-04-15T14:32:07;20.70;;;9.48;;
78908;SDS011;68298;37.368;127.108;2023-04-15T14:34:39;18.67;;;9.13;;
78908;SDS011;68298;37.368;127.108;2023-04-15T14:37:10;18.33;;;9.73;;
78908;SDS011;68298;37.368;127.108;2023-04-15T14:39:40;19.42;;;9.40;;
78908;SDS011;68298;37.368;127.108;2023-04-15T14:42:11;15.85;;;9.07;;
78908;SDS011;68298;37.368;127.108;2023-04-15T14:44:42;21.13;;;9.73;;
78908;SDS011;68298;37.368;127.108;2023-04-15T14:47:13;23.10;;;9.90;;
78908;SDS011;68298;37.368;127.108;2023-04-15T14:49:44;19.83;;;10.68;;
78908;SDS011;68298;37.368;127.108;2023-04-15T14:52:14;18.50;;;9.68;;
78908;SDS011;68298;37.368;127.108;2023-04-15T14:54:45;18.35;;;10.23;;
78908;SDS011;68298;37.368;127.108;2023-04-15T14:57:16;19.63;;;10.32;;
78908;SDS011;68298;37.368;127.108;2023-04-15T14:59:46;28.38;;;11.77;;
78908;SDS011;68298;37.368;127.108;2023-04-15T15:02:17;24.55;;;11.13;;
78908;SDS011;68298;37.368;127.108;2023-04-15T15:05:04;22.27;;;10.50;;
78908;SDS011;68298;37.368;127.108;2023-04-15T15:07:36;18.83;;;9.52;;
78908;SDS011;68298;37.368;127.108;2023-04-15T15:10:07;26.10;;;10.40;;
78908;SDS011;68298;37.368;127.108;2023-04-15T15:12:38;20.80;;;9.68;;